This is the latest recevied weather packets stored in our database for station/object IR1ZYZ-3. If no packets are shown the sender has not sent any weather packets the latest 10 day(s).
| Time | Temp. | Humidity | Pressure | Rain* | Wind** | Luminosity | Snow |
|---|---|---|---|---|---|---|---|
| 1777119350 | 26.67° C | 49% | 1016.9 hPa | - | - | - | - |
| 1777118745 | 25.56° C | 51% | 1017.1 hPa | - | - | - | - |
| 1777118140 | 26.67° C | 51% | 1017 hPa | - | - | - | - |
| 1777117535 | 27.78° C | 46% | 1016.9 hPa | - | - | - | - |
| 1777116931 | 27.22° C | 47% | 1016.9 hPa | - | - | - | - |
| 1777116326 | 26.67° C | 50% | 1016.8 hPa | - | - | - | - |
| 1777115721 | 27.22° C | 51% | 1016.9 hPa | - | - | - | - |
| 1777115116 | 26.67° C | 53% | 1017 hPa | - | - | - | - |
| 1777114512 | 26.11° C | 54% | 1017.1 hPa | - | - | - | - |
| 1777113907 | 25° C | 58% | 1017.2 hPa | - | - | - | - |
| 1777113302 | 25° C | 59% | 1017.4 hPa | - | - | - | - |
| 1777112698 | 24.44° C | 60% | 1017.5 hPa | - | - | - | - |
| 1777112093 | 23.89° C | 62% | 1017.8 hPa | - | - | - | - |
| 1777111489 | 23.33° C | 66% | 1017.8 hPa | - | - | - | - |
| 1777110884 | 22.78° C | 71% | 1017.8 hPa | - | - | - | - |
| 1777110280 | 21.67° C | 75% | 1017.9 hPa | - | - | - | - |
| 1777109675 | 21.11° C | 81% | 1018 hPa | - | - | - | - |
| 1777109071 | 21.11° C | 80% | 1017.9 hPa | - | - | - | - |
| 1777108466 | 20.56° C | 88% | 1018 hPa | - | - | - | - |
| 1777107861 | 20.56° C | 90% | 1018.1 hPa | - | - | - | - |
| 1777107257 | 19.44° C | 94% | 1018.2 hPa | - | - | - | - |
| 1777106652 | 18.89° C | 98% | 1018.2 hPa | - | - | - | - |
| 1777106048 | 18.33° C | 10% | - | - | - | - | - |
| 1777105443 | 18.33° C | 10% | - | - | - | - | - |
| 1777104839 | 17.78° C | 10% | - | - | - | - | - |
* Rain since midnight (hover to see other rain measurements)
** Current wind speed in m/s (hover to see current wind gust speed)